Time;durP1;ratioP1;P1;durP2;ratioP2;P2;SDS_P1;SDS_P2;PMS_P1;PMS_P2;Temp;Humidity;BMP_temperature;BMP_pressure;BME280_temperature;BME280_humidity;BME280_pressure;Samples;Min_cycle;Max_cycle;Signal;HPM_P1;HPM_P2
2023/01/03 00:01:39;;;;;;;3.35;1.25;;;10.50;99.90;;;;;;5110923;28;20202;-79
2023/01/03 00:04:06;;;;;;;2.20;1.00;;;10.60;99.90;;;;;;5093545;28;20171;-79
2023/01/03 00:06:47;;;;;;;2.00;0.93;;;10.60;99.90;;;;;;5111252;28;20216;-79
2023/01/03 00:09:17;;;;;;;2.65;1.08;;;10.60;99.90;;;;;;5112308;28;20167;-79
2023/01/03 00:14:34;;;;;;;1.50;0.88;;;10.70;99.90;;;;;;5111668;28;20181;-79
2023/01/03 00:17:01;;;;;;;2.53;1.10;;;10.70;99.90;;;;;;5111078;28;20171;-79
2023/01/03 00:19:29;;;;;;;2.40;1.45;;;10.70;99.90;;;;;;5112301;28;20571;-79
2023/01/03 00:21:55;;;;;;;3.20;1.10;;;10.60;99.90;;;;;;5112130;28;20202;-78
2023/01/03 00:24:21;;;;;;;2.23;1.40;;;10.60;99.90;;;;;;5111838;28;20174;-79
2023/01/03 00:26:47;;;;;;;3.90;1.48;;;10.70;99.90;;;;;;5111995;28;20600;-79
2023/01/03 00:29:14;;;;;;;6.00;2.10;;;10.70;99.90;;;;;;5112361;28;20801;-78
2023/01/03 00:31:40;;;;;;;2.65;1.40;;;10.70;99.90;;;;;;5110039;28;20202;-79
2023/01/03 00:34:07;;;;;;;3.88;1.10;;;10.70;99.90;;;;;;5110815;28;20545;-79
2023/01/03 00:36:33;;;;;;;3.50;1.40;;;10.70;99.90;;;;;;5115977;28;20163;-79
2023/01/03 00:38:59;;;;;;;2.00;1.10;;;10.70;99.90;;;;;;5110791;28;20178;-79
2023/01/03 00:41:25;;;;;;;2.40;1.47;;;10.60;99.90;;;;;;5109819;28;20572;-79
2023/01/03 00:43:51;;;;;;;2.43;1.47;;;10.60;99.90;;;;;;5111363;28;20561;-79
2023/01/03 00:46:18;;;;;;;3.45;2.10;;;10.70;99.90;;;;;;5110061;28;20683;-77
2023/01/03 00:48:44;;;;;;;2.00;1.45;;;10.60;99.90;;;;;;5110351;28;20185;-78
2023/01/03 00:51:14;;;;;;;6.57;1.73;;;10.60;99.90;;;;;;5111546;28;20274;-78
2023/01/03 00:53:40;;;;;;;4.90;1.67;;;10.60;99.90;;;;;;5109813;28;20271;-78
2023/01/03 00:56:10;;;;;;;2.78;1.45;;;10.60;99.90;;;;;;5110606;28;20270;-78
2023/01/03 00:58:37;;;;;;;3.90;1.45;;;10.50;99.90;;;;;;5093049;28;20181;-78
2023/01/03 01:01:08;;;;;;;8.90;1.67;;;10.50;99.90;;;;;;5110162;28;20202;-78
2023/01/03 01:03:36;;;;;;;2.67;1.33;;;10.50;99.90;;;;;;5099409;28;20171;-78
2023/01/03 01:06:26;;;;;;;3.33;1.92;;;10.50;99.90;;;;;;5091534;28;20164;-77
2023/01/03 01:08:54;;;;;;;3.72;1.45;;;10.50;99.90;;;;;;5082557;28;20184;-78
2023/01/03 01:11:21;;;;;;;2.10;1.50;;;10.40;99.90;;;;;;5090129;28;20163;-78
2023/01/03 01:13:48;;;;;;;3.05;1.90;;;10.40;99.90;;;;;;5093501;28;20262;-78
2023/01/03 01:16:22;;;;;;;2.33;1.45;;;10.30;99.90;;;;;;5072848;28;20547;-78
2023/01/03 01:18:49;;;;;;;2.10;1.25;;;10.30;99.90;;;;;;5090861;28;20661;-78
2023/01/03 01:21:19;;;;;;;2.00;1.30;;;10.20;99.90;;;;;;5072424;28;20298;-78
2023/01/03 01:23:45;;;;;;;2.78;1.92;;;10.20;99.90;;;;;;5090579;28;20685;-78
2023/01/03 01:26:14;;;;;;;2.42;1.65;;;10.10;99.90;;;;;;5089271;28;20237;-78
2023/01/03 01:28:39;;;;;;;2.78;1.30;;;10.10;99.90;;;;;;5089214;28;20179;-78
2023/01/03 01:31:06;;;;;;;5.87;1.40;;;10.00;99.90;;;;;;5072230;28;20887;-78
2023/01/03 01:33:34;;;;;;;5.60;1.58;;;9.90;99.90;;;;;;5090534;28;20174;-78
2023/01/03 01:36:08;;;;;;;4.93;1.85;;;9.80;99.90;;;;;;5090460;28;20556;-78
2023/01/03 01:38:34;;;;;;;2.70;1.20;;;9.80;99.90;;;;;;5072764;28;20175;-78
2023/01/03 01:41:00;;;;;;;3.20;1.33;;;9.70;99.90;;;;;;5090287;28;20569;-78
2023/01/03 01:46:22;;;;;;;5.53;1.33;;;9.60;99.90;;;;;;5089387;28;20171;-78
2023/01/03 01:48:53;;;;;;;5.22;1.65;;;9.60;99.90;;;;;;5091104;28;20175;-78
2023/01/03 01:51:22;;;;;;;2.10;1.58;;;9.50;99.90;;;;;;5091937;28;20183;-78
2023/01/03 01:53:52;;;;;;;4.82;1.30;;;9.50;99.90;;;;;;5090008;28;20234;-78
2023/01/03 01:56:25;;;;;;;5.55;2.00;;;9.40;99.90;;;;;;5090452;28;20175;-78
2023/01/03 01:58:52;;;;;;;2.28;1.67;;;9.40;99.90;;;;;;5071614;28;20531;-78
2023/01/03 02:01:20;;;;;;;3.53;1.50;;;9.40;99.90;;;;;;5089585;28;20487;-78
2023/01/03 02:03:55;;;;;;;4.15;2.50;;;9.30;99.90;;;;;;5087284;28;20259;-78
2023/01/03 02:06:22;;;;;;;2.50;1.40;;;9.30;99.90;;;;;;5088884;28;20205;-78
2023/01/03 02:08:48;;;;;;;6.07;1.98;;;9.30;99.90;;;;;;5071424;28;20176;-78
2023/01/03 02:11:41;;;;;;;3.90;2.27;;;9.30;99.90;;;;;;5089163;28;20197;-78
2023/01/03 02:14:33;;;;;;;4.53;1.50;;;9.20;99.90;;;;;;5087869;28;20262;-79
2023/01/03 02:17:36;;;;;;;5.40;1.15;;;9.20;99.90;;;;;;5083970;28;20225;-79
2023/01/03 02:20:18;;;;;;;2.40;1.00;;;9.20;99.90;;;;;;5088686;28;20254;-78
2023/01/03 02:23:18;;;;;;;3.45;1.20;;;9.10;99.90;;;;;;5088263;28;20568;-78
2023/01/03 02:26:01;;;;;;;3.05;1.00;;;9.10;99.90;;;;;;5088796;28;20197;-78
2023/01/03 02:28:36;;;;;;;4.78;1.63;;;9.10;99.90;;;;;;5090994;28;20218;-79
2023/01/03 02:31:24;;;;;;;2.63;1.30;;;9.00;99.90;;;;;;5071118;28;20175;-79
2023/01/03 02:33:50;;;;;;;5.70;1.30;;;9.00;99.90;;;;;;5054448;28;20202;-79
2023/01/03 02:36:18;;;;;;;6.10;1.60;;;8.90;99.90;;;;;;5088061;28;20168;-79
2023/01/03 02:39:00;;;;;;;2.45;1.00;;;8.90;99.90;;;;;;5089485;28;20193;-79
2023/01/03 02:41:38;;;;;;;6.25;1.40;;;8.80;99.90;;;;;;5088607;28;21080;-79
2023/01/03 02:44:24;;;;;;;1.70;0.85;;;8.80;99.90;;;;;;5087835;28;20193;-79
2023/01/03 02:47:01;;;;;;;5.45;1.20;;;8.80;99.90;;;;;;5054262;28;20539;-79
2023/01/03 02:49:31;;;;;;;2.35;0.95;;;8.80;99.90;;;;;;5071583;28;20167;-79
2023/01/03 02:52:05;;;;;;;1.85;0.88;;;8.70;99.90;;;;;;5087775;28;20221;-79
2023/01/03 02:54:55;;;;;;;3.03;1.30;;;8.70;99.90;;;;;;5087275;28;20230;-79
2023/01/03 02:57:44;;;;;;;3.10;1.20;;;8.70;99.90;;;;;;5080433;28;20209;-79
2023/01/03 03:00:13;;;;;;;2.53;1.00;;;8.60;99.90;;;;;;5081676;28;20180;-79
2023/01/03 03:02:44;;;;;;;5.40;1.30;;;8.60;99.90;;;;;;5087672;28;20243;-79
2023/01/03 03:05:17;;;;;;;5.95;1.20;;;8.60;99.90;;;;;;5090519;28;20229;-78
2023/01/03 03:07:43;;;;;;;2.13;1.00;;;8.60;99.90;;;;;;5071539;28;20167;-79
2023/01/03 03:13:14;;;;;;;2.30;1.20;;;8.60;99.90;;;;;;5087694;28;20616;-79
2023/01/03 03:25:29;;;;;;;3.10;1.13;;;8.50;99.90;;;;;;5092459;28;20168;-78
2023/01/03 03:30:46;;;;;;;2.30;1.08;;;8.50;99.90;;;;;;5074643;28;20171;-79
2023/01/03 03:33:14;;;;;;;2.15;1.00;;;8.50;99.90;;;;;;5092629;28;20191;-78
2023/01/03 03:35:55;;;;;;;2.67;1.10;;;8.50;99.90;;;;;;5093049;28;20171;-79
2023/01/03 03:38:33;;;;;;;2.47;1.23;;;8.40;99.90;;;;;;5093387;28;20159;-79
2023/01/03 03:46:56;;;;;;;2.80;1.00;;;8.40;99.90;;;;;;5088645;28;20217;-78
2023/01/03 03:49:38;;;;;;;2.70;1.75;;;8.40;99.90;;;;;;5111910;28;20178;-79
2023/01/03 03:52:08;;;;;;;3.08;1.27;;;8.40;99.90;;;;;;5111241;28;20202;-78
2023/01/03 03:54:38;;;;;;;5.07;1.40;;;8.40;99.90;;;;;;5093854;28;20286;-79
2023/01/03 03:57:26;;;;;;;3.55;1.27;;;8.40;99.90;;;;;;5111570;28;20580;-78
2023/01/03 03:59:57;;;;;;;2.97;1.58;;;8.40;99.90;;;;;;5094582;28;20269;-78
2023/01/03 04:02:26;;;;;;;2.53;1.50;;;8.50;99.90;;;;;;5093954;28;20198;-78
2023/01/03 04:04:56;;;;;;;2.15;1.50;;;8.50;99.90;;;;;;5112468;28;20709;-79
2023/01/03 04:07:22;;;;;;;2.58;1.48;;;8.50;99.90;;;;;;5094428;28;20171;-79
2023/01/03 04:09:48;;;;;;;3.17;2.07;;;8.50;99.90;;;;;;5111359;28;20166;-78
2023/01/03 04:12:13;;;;;;;3.60;1.73;;;8.50;99.90;;;;;;5094076;28;20628;-78
2023/01/03 04:14:39;;;;;;;3.27;1.70;;;8.50;99.90;;;;;;5112264;28;20592;-78
2023/01/03 04:17:05;;;;;;;3.23;1.40;;;8.50;99.90;;;;;;5111610;28;20674;-78
2023/01/03 04:19:30;;;;;;;4.00;1.40;;;8.50;99.90;;;;;;5098033;28;20630;-79
2023/01/03 04:21:56;;;;;;;5.00;1.80;;;8.50;99.90;;;;;;5110936;28;20722;-78
2023/01/03 04:24:22;;;;;;;3.30;1.57;;;8.50;99.90;;;;;;5110479;28;20568;-79
2023/01/03 04:26:48;;;;;;;4.00;1.27;;;8.50;99.90;;;;;;5094031;28;20182;-79
2023/01/03 04:29:14;;;;;;;5.63;1.43;;;8.50;99.90;;;;;;5110853;28;20569;-78
2023/01/03 04:31:39;;;;;;;3.33;1.60;;;8.50;99.90;;;;;;5093723;28;20620;-78
2023/01/03 04:34:05;;;;;;;2.13;1.63;;;8.40;99.90;;;;;;5092938;28;20557;-78
2023/01/03 04:36:31;;;;;;;3.20;1.50;;;8.40;99.90;;;;;;5112512;28;20167;-79
2023/01/03 04:38:58;;;;;;;3.53;1.80;;;8.40;99.90;;;;;;5110866;28;20620;-79
2023/01/03 04:41:24;;;;;;;2.97;1.57;;;8.40;99.90;;;;;;5111685;28;20206;-79
2023/01/03 04:44:00;;;;;;;2.20;1.13;;;8.40;99.90;;;;;;5093853;28;20643;-79
2023/01/03 04:46:29;;;;;;;2.85;1.20;;;8.40;99.90;;;;;;5093578;28;20167;-79
2023/01/03 04:48:55;;;;;;;2.95;1.73;;;8.50;99.90;;;;;;5110946;28;20171;-78
2023/01/03 04:51:20;;;;;;;3.00;1.73;;;8.50;99.90;;;;;;5110427;28;20181;-78
2023/01/03 04:53:46;;;;;;;4.27;1.40;;;8.60;99.90;;;;;;5111766;28;20159;-78
2023/01/03 04:56:12;;;;;;;4.03;1.50;;;8.70;99.90;;;;;;5116373;27;20163;-78
2023/01/03 04:58:38;;;;;;;5.60;1.70;;;8.80;99.90;;;;;;5112066;28;20743;-78
2023/01/03 05:01:06;;;;;;;3.47;1.23;;;8.80;99.90;;;;;;5110125;28;20556;-78
2023/01/03 05:03:33;;;;;;;5.15;1.42;;;8.90;99.90;;;;;;5111605;28;20199;-78
2023/01/03 05:06:07;;;;;;;2.33;1.10;;;9.00;99.90;;;;;;5111614;28;20220;-78
2023/01/03 05:08:34;;;;;;;3.08;1.35;;;9.10;99.90;;;;;;5108756;28;20175;-78
2023/01/03 05:10:59;;;;;;;2.25;1.13;;;9.20;99.90;;;;;;5109111;28;20174;-78
2023/01/03 05:13:25;;;;;;;2.03;1.00;;;9.20;99.90;;;;;;5108279;28;20187;-78
2023/01/03 05:15:51;;;;;;;4.30;1.60;;;9.20;99.90;;;;;;5110962;28;20696;-78
2023/01/03 05:18:17;;;;;;;2.57;1.80;;;9.30;99.90;;;;;;5110581;28;20193;-78
2023/01/03 05:26:15;;;;;;;5.15;1.35;;;9.40;99.90;;;;;;5110166;28;20167;-78
2023/01/03 05:28:43;;;;;;;3.53;1.48;;;9.50;99.90;;;;;;5092668;28;20167;-77
2023/01/03 05:31:09;;;;;;;4.40;1.67;;;9.60;99.90;;;;;;5109597;28;20175;-78
2023/01/03 05:33:37;;;;;;;3.50;1.47;;;9.60;99.90;;;;;;5114464;28;20167;-78
2023/01/03 05:36:04;;;;;;;3.20;1.30;;;9.60;99.90;;;;;;5109625;28;20577;-77
2023/01/03 05:38:30;;;;;;;3.65;1.30;;;9.60;99.90;;;;;;5110942;28;20175;-78
2023/01/03 05:40:56;;;;;;;2.97;1.30;;;9.70;99.90;;;;;;5109393;28;20186;-78
2023/01/03 05:43:21;;;;;;;2.03;1.20;;;9.60;99.90;;;;;;5108727;28;20556;-78
2023/01/03 05:45:51;;;;;;;3.30;1.70;;;9.60;99.90;;;;;;5108595;28;20174;-79
2023/01/03 05:48:18;;;;;;;3.67;1.15;;;9.60;99.90;;;;;;5111089;28;20186;-78
2023/01/03 05:50:45;;;;;;;4.25;1.42;;;9.60;99.90;;;;;;5110279;28;20167;-78
2023/01/03 05:53:10;;;;;;;5.03;2.00;;;9.50;99.90;;;;;;5110155;28;20266;-78
2023/01/03 05:55:36;;;;;;;3.30;1.00;;;9.50;99.90;;;;;;5110540;28;20212;-78
2023/01/03 05:58:03;;;;;;;1.63;1.00;;;9.40;99.90;;;;;;5092551;28;20191;-78
2023/01/03 06:00:29;;;;;;;4.00;1.02;;;9.40;99.90;;;;;;5109133;28;20618;-78
2023/01/03 06:02:55;;;;;;;4.53;1.10;;;9.40;99.90;;;;;;5090167;28;20233;-77
2023/01/03 06:05:21;;;;;;;2.90;1.27;;;9.30;99.90;;;;;;5089558;28;20168;-78
2023/01/03 06:07:47;;;;;;;2.73;1.50;;;9.30;99.90;;;;;;5071981;28;20827;-78
2023/01/03 06:10:13;;;;;;;4.13;1.35;;;9.20;99.90;;;;;;5094296;28;20167;-79
2023/01/03 06:12:39;;;;;;;3.30;1.80;;;9.20;99.90;;;;;;5088716;28;20218;-78
2023/01/03 06:15:05;;;;;;;3.90;1.73;;;9.20;99.90;;;;;;5089552;28;20194;-78
2023/01/03 06:20:15;;;;;;;3.25;1.60;;;9.20;99.90;;;;;;5088695;28;20217;-78
2023/01/03 06:22:41;;;;;;;2.60;1.30;;;9.20;99.90;;;;;;5071092;28;20667;-79
2023/01/03 06:25:07;;;;;;;3.40;2.00;;;9.20;99.90;;;;;;5071297;28;20567;-79
2023/01/03 06:27:33;;;;;;;5.82;1.70;;;9.20;99.90;;;;;;5089749;28;20164;-78
2023/01/03 06:29:59;;;;;;;3.00;1.57;;;9.20;99.90;;;;;;5088773;28;20631;-79
2023/01/03 06:32:25;;;;;;;2.97;1.20;;;9.10;99.90;;;;;;5088533;28;20282;-79
2023/01/03 06:34:50;;;;;;;2.83;1.47;;;9.10;99.90;;;;;;5088156;28;20182;-78
2023/01/03 06:37:16;;;;;;;3.27;1.30;;;9.10;99.90;;;;;;5089851;28;21155;-78
2023/01/03 06:39:42;;;;;;;3.93;1.23;;;9.10;99.90;;;;;;5088321;28;20313;-78
2023/01/03 06:53:13;;;;;;;2.88;1.30;;;9.20;99.90;;;;;;5071730;28;20199;-79
2023/01/03 06:55:40;;;;;;;4.85;1.55;;;9.20;99.90;;;;;;5094625;22;20243;-73
2023/01/03 06:58:06;;;;;;;2.60;2.05;;;9.20;99.90;;;;;;5069345;28;20196;-73
2023/01/03 07:00:35;;;;;;;1.80;1.30;;;9.20;99.90;;;;;;5073789;28;20627;-72
2023/01/03 07:03:01;;;;;;;1.90;1.20;;;9.20;99.90;;;;;;5104900;28;20211;-71
2023/01/03 07:05:26;;;;;;;2.73;1.90;;;9.20;99.90;;;;;;5068409;28;20188;-72
2023/01/03 07:07:52;;;;;;;4.10;2.10;;;9.20;99.90;;;;;;5077315;28;20180;-72
2023/01/03 07:10:18;;;;;;;3.60;1.40;;;9.20;99.90;;;;;;5067705;28;20218;-71
2023/01/03 07:15:28;;;;;;;2.47;1.38;;;9.30;99.90;;;;;;5067454;28;20202;-71
2023/01/03 07:17:54;;;;;;;3.83;1.73;;;9.30;99.90;;;;;;5064795;28;20583;-71
2023/01/03 07:20:20;;;;;;;3.42;1.77;;;9.40;99.90;;;;;;5068596;28;20767;-71
2023/01/03 07:22:46;;;;;;;3.17;1.60;;;9.40;99.90;;;;;;5059497;28;20295;-71
2023/01/03 07:25:11;;;;;;;5.07;1.83;;;9.40;99.90;;;;;;5060502;28;20718;-72
2023/01/03 07:27:37;;;;;;;2.10;1.60;;;9.50;99.90;;;;;;5044546;28;20216;-73
2023/01/03 07:30:03;;;;;;;3.60;1.47;;;9.50;99.90;;;;;;5049820;28;20546;-73
2023/01/03 07:32:29;;;;;;;5.80;2.10;;;9.50;99.90;;;;;;5049054;28;20208;-72
2023/01/03 07:34:55;;;;;;;2.43;1.50;;;9.50;99.90;;;;;;5049112;28;20235;-72
2023/01/03 07:37:20;;;;;;;2.20;1.77;;;9.50;99.90;;;;;;5050195;28;20580;-72
2023/01/03 07:39:46;;;;;;;2.50;2.13;;;9.50;99.90;;;;;;5049214;28;20165;-72
2023/01/03 07:44:56;;;;;;;2.55;1.95;;;9.50;99.90;;;;;;5067697;28;20200;-73
2023/01/03 07:47:22;;;;;;;4.60;2.67;;;9.50;99.90;;;;;;5069881;28;20173;-73
2023/01/03 07:49:47;;;;;;;2.47;1.80;;;9.60;99.90;;;;;;5068571;28;20180;-72
2023/01/03 07:52:13;;;;;;;2.90;2.27;;;9.60;99.90;;;;;;5070056;28;20176;-73
2023/01/03 07:54:39;;;;;;;5.50;2.07;;;9.60;99.90;;;;;;5069553;28;20206;-72
2023/01/03 07:57:04;;;;;;;4.73;2.77;;;9.60;99.90;;;;;;5070291;28;20203;-72
2023/01/03 07:59:30;;;;;;;3.30;2.00;;;9.60;99.90;;;;;;5070001;28;20179;-72
2023/01/03 08:01:56;;;;;;;4.03;2.40;;;9.60;99.90;;;;;;5069509;28;20683;-72
2023/01/03 08:04:21;;;;;;;3.47;1.70;;;9.50;99.90;;;;;;5069864;28;20644;-73
2023/01/03 08:06:49;;;;;;;4.10;2.72;;;9.50;99.90;;;;;;5068397;28;20207;-72
2023/01/03 08:14:43;;;;;;;3.03;2.50;;;9.50;99.90;;;;;;5073400;28;20242;-72
2023/01/03 08:17:09;;;;;;;3.10;1.80;;;9.50;99.90;;;;;;5073306;28;20168;-72
2023/01/03 08:19:34;;;;;;;3.40;2.30;;;9.50;99.90;;;;;;5073666;28;20177;-73
2023/01/03 08:22:00;;;;;;;3.13;2.43;;;9.50;99.90;;;;;;5072875;28;20604;-72
2023/01/03 08:24:26;;;;;;;2.95;2.28;;;9.50;99.90;;;;;;5073178;28;20211;-72
2023/01/03 08:26:52;;;;;;;3.63;2.20;;;9.50;99.90;;;;;;5073419;28;20188;-72
2023/01/03 08:29:21;;;;;;;2.97;1.83;;;9.50;99.90;;;;;;5071764;28;20176;-72
2023/01/03 08:31:54;;;;;;;5.25;2.25;;;9.50;99.90;;;;;;5071940;28;20183;-72
2023/01/03 08:34:21;;;;;;;2.60;1.77;;;9.50;99.90;;;;;;5071181;28;20180;-72
2023/01/03 08:36:53;;;;;;;3.33;2.22;;;9.60;99.90;;;;;;5073389;28;20189;-72
2023/01/03 08:39:23;;;;;;;6.57;2.10;;;9.60;99.90;;;;;;5071474;28;20757;-72
2023/01/03 08:41:56;;;;;;;3.38;1.80;;;9.70;99.90;;;;;;5073118;28;20269;-73
2023/01/03 08:44:21;;;;;;;5.25;1.65;;;9.70;99.90;;;;;;5054126;28;20172;-72
2023/01/03 08:46:51;;;;;;;6.23;2.33;;;9.80;99.90;;;;;;5072519;28;20279;-72
2023/01/03 08:49:17;;;;;;;4.78;2.03;;;9.80;99.90;;;;;;5054336;28;20258;-72
2023/01/03 08:51:43;;;;;;;3.65;1.75;;;9.80;99.90;;;;;;5073018;28;20583;-71
2023/01/03 08:54:09;;;;;;;3.40;2.27;;;9.80;99.90;;;;;;5072488;28;20208;-72
2023/01/03 08:56:34;;;;;;;2.73;1.70;;;9.80;99.90;;;;;;5072448;28;20630;-72
2023/01/03 08:59:00;;;;;;;3.93;2.80;;;9.70;99.90;;;;;;5072710;28;20172;-72
2023/01/03 09:01:27;;;;;;;2.78;1.90;;;9.70;99.90;;;;;;5070730;28;20359;-72
2023/01/03 09:03:53;;;;;;;3.17;1.80;;;9.80;99.90;;;;;;5072200;28;20267;-72
2023/01/03 09:06:19;;;;;;;3.70;1.73;;;9.80;99.90;;;;;;5069550;28;20679;-73
2023/01/03 09:08:45;;;;;;;2.97;2.28;;;9.80;99.90;;;;;;5066866;28;20609;-72
2023/01/03 09:11:11;;;;;;;2.92;2.08;;;9.80;99.90;;;;;;5060436;28;20172;-72
2023/01/03 09:13:37;;;;;;;3.80;2.17;;;9.80;99.90;;;;;;5067940;28;20179;-72
2023/01/03 09:16:05;;;;;;;6.43;2.10;;;9.90;99.90;;;;;;5072491;28;21081;-72
2023/01/03 09:18:32;;;;;;;3.05;1.60;;;10.00;99.90;;;;;;5071115;28;20536;-72
2023/01/03 09:20:58;;;;;;;3.50;1.80;;;10.00;99.90;;;;;;5063392;28;20192;-72
2023/01/03 09:23:24;;;;;;;4.97;1.57;;;10.20;99.90;;;;;;5059591;28;20625;-72
2023/01/03 09:25:50;;;;;;;2.13;1.40;;;10.30;99.90;;;;;;5068384;28;20645;-73
2023/01/03 09:28:15;;;;;;;6.43;1.67;;;10.40;99.90;;;;;;5082206;28;20965;-72
2023/01/03 09:30:41;;;;;;;3.10;1.60;;;10.50;99.90;;;;;;5060461;28;20233;-72
2023/01/03 09:33:09;;;;;;;3.27;1.70;;;10.60;99.90;;;;;;5079300;28;20226;-73
2023/01/03 09:35:36;;;;;;;2.58;1.42;;;10.70;99.90;;;;;;5077866;28;20230;-72
2023/01/03 09:38:02;;;;;;;3.08;1.10;;;10.70;99.90;;;;;;5069327;28;20176;-72
2023/01/03 09:40:37;;;;;;;3.10;1.47;;;10.80;99.90;;;;;;5083083;28;20708;-72
2023/01/03 09:43:14;;;;;;;2.17;1.25;;;10.90;99.90;;;;;;5090007;28;20629;-72
2023/01/03 09:45:56;;;;;;;3.00;1.73;;;11.00;99.90;;;;;;5091584;28;20184;-72
2023/01/03 09:48:31;;;;;;;3.65;1.58;;;11.00;99.90;;;;;;5090856;28;20189;-72
2023/01/03 09:50:57;;;;;;;3.28;1.35;;;11.10;99.90;;;;;;5090355;28;20216;-72
2023/01/03 10:05:25;;;;;;;2.90;1.55;;;11.70;99.90;;;;;;5091320;28;20265;-72
2023/01/03 10:08:03;;;;;;;5.78;2.05;;;11.90;99.90;;;;;;5068872;28;20725;-72
2023/01/03 10:10:47;;;;;;;5.30;1.52;;;12.00;99.90;;;;;;5053198;28;20583;-72
2023/01/03 10:13:27;;;;;;;3.20;1.30;;;12.10;99.90;;;;;;5068811;28;20179;-72
2023/01/03 10:16:16;;;;;;;5.38;1.40;;;12.10;99.90;;;;;;5053340;28;20192;-72
2023/01/03 10:18:44;;;;;;;4.03;1.30;;;12.20;99.90;;;;;;5069798;28;20565;-72
2023/01/03 10:21:10;;;;;;;2.05;1.10;;;12.30;99.90;;;;;;5070837;28;20207;-72
2023/01/03 10:23:36;;;;;;;2.50;1.60;;;12.40;99.90;;;;;;5070552;28;20192;-72
2023/01/03 10:26:11;;;;;;;3.20;1.60;;;12.40;99.90;;;;;;5070937;28;20187;-72
2023/01/03 10:28:40;;;;;;;3.85;1.30;;;12.50;99.90;;;;;;5066342;28;20183;-72
2023/01/03 10:31:24;;;;;;;2.15;1.50;;;12.50;99.90;;;;;;5065847;28;20173;-73
2023/01/03 10:33:50;;;;;;;2.92;1.35;;;12.60;99.90;;;;;;5050438;28;20201;-72
2023/01/03 10:36:18;;;;;;;3.50;1.63;;;12.70;99.90;;;;;;5066350;28;20695;-72
2023/01/03 10:38:44;;;;;;;5.73;1.03;;;12.80;99.90;;;;;;5066569;28;20641;-72
2023/01/03 10:41:33;;;;;;;3.57;1.10;;;12.90;99.90;;;;;;5065827;28;20591;-71
2023/01/03 10:44:01;;;;;;;2.80;0.80;;;13.00;99.90;;;;;;5049140;28;20579;-72
2023/01/03 10:46:28;;;;;;;4.63;1.33;;;13.10;99.90;;;;;;5065984;28;20702;-73
2023/01/03 10:49:10;;;;;;;2.20;1.00;;;13.20;99.90;;;;;;5049667;28;20180;-72
2023/01/03 10:51:42;;;;;;;2.67;0.90;;;13.20;99.90;;;;;;5050611;28;20951;-73
2023/01/03 10:54:17;;;;;;;3.95;0.80;;;13.20;99.90;;;;;;5050535;28;20622;-72
2023/01/03 10:56:44;;;;;;;2.70;0.80;;;13.20;99.90;;;;;;5050276;28;20544;-72
2023/01/03 10:59:25;;;;;;;5.78;0.80;;;13.20;99.90;;;;;;5050944;28;20176;-72
2023/01/03 11:02:07;;;;;;;3.17;1.20;;;13.20;99.90;;;;;;5050097;28;20231;-72
2023/01/03 11:04:34;;;;;;;2.43;0.80;;;13.20;99.90;;;;;;5032763;28;20611;-73
2023/01/03 11:07:10;;;;;;;3.80;0.70;;;13.20;99.90;;;;;;5063397;28;20587;-72
2023/01/03 11:09:53;;;;;;;1.97;0.80;;;13.20;99.90;;;;;;5069256;28;20195;-73
2023/01/03 11:12:38;;;;;;;2.47;0.70;;;13.20;99.90;;;;;;5069840;28;20686;-72
2023/01/03 11:15:14;;;;;;;2.63;0.90;;;13.20;99.90;;;;;;5069059;28;20192;-73
2023/01/03 11:17:56;;;;;;;1.70;0.70;;;13.20;99.90;;;;;;5068849;28;20172;-72
2023/01/03 11:20:49;;;;;;;3.13;0.80;;;13.20;99.90;;;;;;5069366;28;20175;-72
2023/01/03 11:23:27;;;;;;;2.03;0.87;;;13.10;99.90;;;;;;5068040;28;20211;-72
2023/01/03 11:26:11;;;;;;;2.20;0.85;;;13.20;99.90;;;;;;5069366;28;20614;-72
2023/01/03 11:28:51;;;;;;;4.35;0.80;;;13.20;99.90;;;;;;5069348;28;20309;-72
2023/01/03 11:31:32;;;;;;;1.67;0.60;;;13.20;99.90;;;;;;5052556;28;20176;-72
2023/01/03 11:34:32;;;;;;;1.95;0.82;;;13.20;99.90;;;;;;5068875;28;20567;-73
2023/01/03 11:37:28;;;;;;;2.07;1.20;;;13.20;99.90;;;;;;5069395;28;20198;-73
2023/01/03 11:40:12;;;;;;;2.03;1.00;;;13.30;99.90;;;;;;5069621;28;20570;-73
2023/01/03 11:43:07;;;;;;;3.90;1.17;;;13.40;99.90;;;;;;5070512;28;20978;-72
2023/01/03 11:46:15;;;;;;;2.30;0.60;;;13.50;99.90;;;;;;5055526;28;20614;-73
2023/01/03 11:48:59;;;;;;;3.00;0.63;;;13.60;99.90;;;;;;5039352;28;20602;-72
2023/01/03 11:51:35;;;;;;;1.70;0.70;;;13.70;99.90;;;;;;5074087;28;20578;-79
2023/01/03 11:54:26;;;;;;;1.40;0.60;;;13.80;99.90;;;;;;5078555;28;20740;-80
2023/01/03 11:56:53;;;;;;;1.30;0.70;;;13.90;99.90;;;;;;5054183;28;20737;-77
2023/01/03 11:59:37;;;;;;;2.00;0.50;;;14.00;99.90;;;;;;5073192;28;20600;-78
2023/01/03 12:02:17;;;;;;;6.60;1.63;;;14.10;99.90;;;;;;5073736;28;20629;-79
2023/01/03 12:04:57;;;;;;;2.13;0.60;;;14.20;99.90;;;;;;5073931;28;20570;-77
2023/01/03 12:07:31;;;;;;;1.80;0.83;;;14.30;99.90;;;;;;5072239;28;20613;-78
2023/01/03 12:10:32;;;;;;;2.60;0.70;;;14.40;99.90;;;;;;5074622;28;20555;-78
2023/01/03 12:13:19;;;;;;;3.10;1.00;;;14.40;99.90;;;;;;5073273;28;21133;-77
2023/01/03 12:15:55;;;;;;;2.07;0.70;;;14.50;99.90;;;;;;5069028;28;20675;-78
2023/01/03 12:18:45;;;;;;;2.15;0.70;;;14.50;99.90;;;;;;5073076;28;20570;-79
2023/01/03 12:21:20;;;;;;;2.57;0.90;;;14.50;99.90;;;;;;5073327;28;20286;-77
2023/01/03 12:23:58;;;;;;;4.33;0.70;;;14.50;99.90;;;;;;5071563;28;20558;-78
2023/01/03 12:26:26;;;;;;;2.30;0.63;;;14.40;99.90;;;;;;5055851;28;20617;-78
2023/01/03 12:29:10;;;;;;;1.87;0.50;;;14.30;99.90;;;;;;5073330;28;20594;-78
2023/01/03 12:31:48;;;;;;;4.43;0.60;;;14.40;99.90;;;;;;5070476;28;20598;-78
2023/01/03 12:34:28;;;;;;;1.40;0.60;;;14.40;99.90;;;;;;5087291;28;20577;-78
2023/01/03 12:37:17;;;;;;;2.30;0.60;;;14.40;99.90;;;;;;5072685;28;20703;-77
2023/01/03 12:40:09;;;;;;;3.30;1.00;;;14.40;99.90;;;;;;5035459;28;20575;-77
2023/01/03 12:42:43;;;;;;;5.63;0.87;;;14.30;99.90;;;;;;5051287;28;20642;-78
2023/01/03 12:45:35;;;;;;;3.20;0.80;;;14.30;99.90;;;;;;5052744;28;20634;-77
2023/01/03 12:48:25;;;;;;;2.40;0.77;;;14.20;99.90;;;;;;5051597;28;20231;-77
2023/01/03 12:50:53;;;;;;;2.03;0.70;;;14.20;99.90;;;;;;5035281;28;21118;-77
2023/01/03 12:53:54;;;;;;;6.27;0.70;;;14.10;99.90;;;;;;5050175;28;20695;-77
2023/01/03 12:56:40;;;;;;;1.70;0.60;;;14.10;99.90;;;;;;4973858;28;20642;-77
2023/01/03 12:59:30;;;;;;;1.40;0.63;;;14.00;99.90;;;;;;5066295;28;20598;-77
2023/01/03 13:02:06;;;;;;;1.97;0.60;;;13.90;99.90;;;;;;5089088;22;20656;-76
2023/01/03 13:04:37;;;;;;;3.28;0.60;;;13.90;99.90;;;;;;5085867;28;20686;-76
2023/01/03 13:07:05;;;;;;;1.80;0.70;;;13.80;99.90;;;;;;5072264;28;20168;-76
2023/01/03 13:09:35;;;;;;;2.17;1.13;;;13.80;99.90;;;;;;5072569;28;20182;-76
2023/01/03 13:12:11;;;;;;;4.67;1.80;;;13.70;99.90;;;;;;5071691;28;20637;-75
2023/01/03 13:15:09;;;;;;;2.67;1.10;;;13.70;99.90;;;;;;5072302;28;20576;-76
2023/01/03 13:17:48;;;;;;;1.60;0.60;;;13.60;99.90;;;;;;5074389;28;20190;-76
2023/01/03 13:20:24;;;;;;;3.03;0.70;;;13.60;99.90;;;;;;5072169;28;20669;-76
2023/01/03 13:22:54;;;;;;;3.00;0.50;;;13.60;99.90;;;;;;5071328;28;20656;-76
2023/01/03 13:25:36;;;;;;;6.00;0.77;;;13.60;99.90;;;;;;5071092;28;20574;-75
2023/01/03 13:28:28;;;;;;;1.30;0.60;;;13.60;99.90;;;;;;5056361;28;20569;-76
2023/01/03 13:31:13;;;;;;;2.40;0.80;;;13.60;99.90;;;;;;5072349;28;20596;-77
2023/01/03 13:33:50;;;;;;;1.33;0.50;;;13.60;99.90;;;;;;5070534;28;20617;-76
2023/01/03 13:36:17;;;;;;;2.30;0.50;;;13.60;99.90;;;;;;5071167;28;20571;-77
2023/01/03 13:38:43;;;;;;;2.03;0.60;;;13.60;99.90;;;;;;5070999;28;20586;-76
2023/01/03 13:41:30;;;;;;;1.63;0.50;;;13.60;99.90;;;;;;5070748;28;20583;-75
2023/01/03 13:44:07;;;;;;;1.23;0.53;;;13.60;99.90;;;;;;5054086;28;20899;-76
2023/01/03 13:46:33;;;;;;;2.00;0.70;;;13.70;99.90;;;;;;5079308;28;20578;-76
2023/01/03 13:49:03;;;;;;;1.90;0.60;;;13.70;99.90;;;;;;5090867;28;20590;-76
2023/01/03 13:51:38;;;;;;;2.30;0.70;;;13.80;99.90;;;;;;5092436;28;20572;-77
2023/01/03 13:54:09;;;;;;;1.83;0.60;;;13.90;99.90;;;;;;5094908;28;20755;-77
2023/01/03 13:56:41;;;;;;;1.70;0.60;;;13.90;99.90;;;;;;5090879;28;20561;-77
2023/01/03 13:59:13;;;;;;;2.30;0.60;;;14.00;99.90;;;;;;5091924;28;20589;-76
2023/01/03 14:01:47;;;;;;;1.57;0.50;;;14.00;99.90;;;;;;5090281;28;20629;-76
2023/01/03 14:04:41;;;;;;;1.87;0.60;;;14.10;99.90;;;;;;5091874;28;20983;-77
2023/01/03 14:07:27;;;;;;;3.33;0.50;;;14.10;99.90;;;;;;5090290;28;20574;-77
2023/01/03 14:10:20;;;;;;;1.60;0.90;;;14.10;99.90;;;;;;5092565;28;20706;-78
2023/01/03 14:13:11;;;;;;;1.80;0.60;;;14.10;99.90;;;;;;5092181;28;21279;-77
2023/01/03 14:15:36;;;;;;;3.13;1.43;;;14.20;99.90;;;;;;5075144;28;20683;-76
2023/01/03 14:18:24;;;;;;;3.60;1.33;;;14.10;99.90;;;;;;5077780;28;20589;-76
2023/01/03 14:20:53;;;;;;;2.63;1.00;;;14.10;99.90;;;;;;5092424;28;20179;-77
2023/01/03 14:23:22;;;;;;;3.40;1.13;;;14.10;99.90;;;;;;5091996;28;20637;-76
2023/01/03 14:25:49;;;;;;;2.60;1.10;;;14.00;99.90;;;;;;5091302;28;20570;-76
2023/01/03 14:28:32;;;;;;;4.10;1.83;;;14.00;99.90;;;;;;5091311;28;20627;-77